Time;durP1;ratioP1;P1;durP2;ratioP2;P2;SDS_P1;SDS_P2;PMS_P1;PMS_P2;Temp;Humidity;BMP_temperature;BMP_pressure;BME280_temperature;BME280_humidity;BME280_pressure;Samples;Min_cycle;Max_cycle;Signal;HPM_P1;HPM_P2
2023/05/04 00:02:26;;;;;;;;;;;8.90;99.90;;;;;;5083597;28;20259;-69
2023/05/04 00:04:53;;;;;;;;;;;8.90;99.90;;;;;;5083669;28;19927;-69
2023/05/04 00:07:20;;;;;;;;;;;8.80;99.90;;;;;;5083058;28;19921;-68
2023/05/04 00:09:46;;;;;;;;;;;8.70;99.90;;;;;;5083634;28;19992;-69
2023/05/04 00:12:14;;;;;;;;;;;8.70;99.90;;;;;;5097031;28;19920;-68
2023/05/04 00:14:41;;;;;;;;;;;8.60;99.90;;;;;;5103292;28;20212;-67
2023/05/04 00:17:08;;;;;;;;;;;8.60;99.90;;;;;;5103015;28;19959;-68
2023/05/04 00:19:35;;;;;;;;;;;8.60;99.90;;;;;;5103475;28;20257;-68
2023/05/04 00:22:01;;;;;;;;;;;8.60;99.90;;;;;;5103568;28;19927;-68
2023/05/04 00:24:28;;;;;;;;;;;8.60;99.90;;;;;;5102646;28;19987;-68
2023/05/04 00:26:55;;;;;;;;;;;8.60;99.90;;;;;;5102746;28;20162;-68
2023/05/04 00:29:23;;;;;;;;;;;8.50;99.90;;;;;;5103611;28;20089;-68
2023/05/04 00:31:50;;;;;;;;;;;8.50;99.90;;;;;;5103613;28;19926;-68
2023/05/04 00:34:17;;;;;;;;;;;8.50;99.90;;;;;;5103262;28;20281;-68
2023/05/04 00:36:45;;;;;;;;;;;8.40;99.90;;;;;;5102596;28;20212;-69
2023/05/04 00:39:11;;;;;;;;;;;8.40;99.90;;;;;;5103606;28;19966;-69
2023/05/04 00:41:38;;;;;;;;;;;8.30;99.90;;;;;;5103487;28;19956;-68
2023/05/04 00:44:05;;;;;;;;;;;8.20;99.90;;;;;;5103176;28;19920;-68
2023/05/04 00:46:33;;;;;;;;;;;8.20;99.90;;;;;;5083135;28;19927;-68
2023/05/04 00:49:00;;;;;;;;;;;8.20;99.90;;;;;;5083332;28;19920;-67
2023/05/04 00:51:28;;;;;;;;;;;8.20;99.90;;;;;;5083033;28;19927;-67
2023/05/04 00:53:55;;;;;;;;;;;8.10;99.90;;;;;;5082926;28;19927;-69
2023/05/04 00:56:22;;;;;;;;;;;8.10;99.90;;;;;;5082378;28;19935;-69
2023/05/04 00:58:53;;;;;;;;;;;8.00;99.90;;;;;;5083180;28;20150;-68
2023/05/04 01:01:19;;;;;;;;;;;8.00;99.90;;;;;;5082776;28;19966;-71
2023/05/04 01:03:47;;;;;;;;;;;8.00;99.90;;;;;;5083089;28;19988;-67
2023/05/04 01:06:19;;;;;;;;;;;8.00;99.90;;;;;;5082239;28;19980;-69
2023/05/04 01:08:47;;;;;;;;;;;7.90;99.90;;;;;;5083185;28;20123;-69
2023/05/04 01:11:18;;;;;;;;;;;7.90;99.90;;;;;;5082795;28;20205;-67
2023/05/04 01:13:46;;;;;;;;;;;7.80;99.90;;;;;;5083022;28;19921;-67
2023/05/04 01:16:13;;;;;;;;;;;7.80;99.90;;;;;;5082793;28;19934;-68
2023/05/04 01:18:40;;;;;;;;;;;7.80;99.90;;;;;;5082864;28;20119;-68
2023/05/04 01:21:08;;;;;;;;;;;7.70;99.90;;;;;;5082819;28;19964;-68
2023/05/04 01:23:36;;;;;;;;;;;7.70;99.90;;;;;;5082884;28;20094;-68
2023/05/04 01:26:06;;;;;;;;;;;7.60;99.90;;;;;;5079943;28;19920;-71
2023/05/04 01:28:37;;;;;;;;;;;7.60;99.90;;;;;;5082471;28;20224;-69
2023/05/04 01:31:05;;;;;;;;;;;7.60;99.90;;;;;;5082528;28;19920;-68
2023/05/04 01:33:32;;;;;;;;;;;7.50;99.90;;;;;;5082646;28;19927;-68
2023/05/04 01:35:58;;;;;;;;;;;7.50;99.90;;;;;;5081958;28;19926;-70
2023/05/04 01:38:25;;;;;;;;;;;7.50;99.90;;;;;;5083034;28;20116;-68
2023/05/04 01:40:53;;;;;;;;;;;7.50;99.90;;;;;;5086136;28;19983;-67
2023/05/04 01:43:20;;;;;;;;;;;7.40;99.90;;;;;;5086222;28;19920;-67
2023/05/04 01:45:46;;;;;;;;;;;7.40;99.90;;;;;;5085387;28;19920;-67
2023/05/04 01:48:13;;;;;;;;;;;7.40;99.90;;;;;;5093977;28;20313;-67
2023/05/04 01:50:40;;;;;;;;;;;7.30;99.90;;;;;;5106334;28;19926;-69
2023/05/04 01:53:06;;;;;;;;;;;7.30;99.90;;;;;;5106337;28;19956;-69
2023/05/04 01:55:33;;;;;;;;;;;7.30;99.90;;;;;;5108595;28;19955;-69
2023/05/04 01:58:01;;;;;;;;;;;7.30;99.90;;;;;;5126202;28;19951;-68
2023/05/04 02:00:28;;;;;;;;;;;7.30;99.90;;;;;;5126767;28;19942;-67
2023/05/04 02:02:54;;;;;;;;;;;7.20;99.90;;;;;;5126529;28;19920;-68
2023/05/04 02:05:21;;;;;;;;;;;7.20;99.90;;;;;;5126339;28;20007;-68
2023/05/04 02:07:47;;;;;;;;;;;7.10;99.90;;;;;;5126101;28;20227;-67
2023/05/04 02:10:14;;;;;;;;;;;7.10;99.90;;;;;;5126531;28;19995;-68
2023/05/04 02:12:41;;;;;;;;;;;7.10;99.90;;;;;;5126539;28;19982;-68
2023/05/04 02:15:10;;;;;;;;;;;7.00;99.90;;;;;;5126273;28;19983;-68
2023/05/04 02:17:37;;;;;;;;;;;7.00;99.90;;;;;;5125399;28;19920;-68
2023/05/04 02:20:04;;;;;;;;;;;7.00;99.90;;;;;;5126278;28;19982;-68
2023/05/04 02:22:30;;;;;;;;;;;7.00;99.90;;;;;;5126048;28;19927;-67
2023/05/04 02:24:57;;;;;;;;;;;6.90;99.90;;;;;;5125955;28;19990;-69
2023/05/04 02:27:24;;;;;;;;;;;6.90;99.90;;;;;;5125802;28;19979;-69
2023/05/04 02:29:50;;;;;;;;;;;6.80;99.90;;;;;;5118814;28;19920;-68
2023/05/04 02:32:18;;;;;;;;;;;6.80;99.90;;;;;;5085032;28;20259;-69
2023/05/04 02:34:45;;;;;;;;;;;6.70;99.90;;;;;;5085028;28;19920;-68
2023/05/04 02:37:11;;;;;;;;;;;6.70;99.90;;;;;;5085054;28;19955;-68
2023/05/04 02:39:38;;;;;;;;;;;6.70;99.90;;;;;;5085184;28;19920;-67
2023/05/04 02:42:05;;;;;;;;;;;6.70;99.90;;;;;;5085066;28;20167;-68
2023/05/04 02:44:31;;;;;;;;;;;6.60;99.90;;;;;;5084790;28;19927;-69
2023/05/04 02:46:58;;;;;;;;;;;6.60;99.90;;;;;;5084129;28;19988;-69
2023/05/04 02:49:26;;;;;;;;;;;6.50;99.90;;;;;;5091932;28;19983;-67
2023/05/04 02:51:52;;;;;;;;;;;6.50;99.90;;;;;;5096128;28;19926;-69
2023/05/04 02:54:19;;;;;;;;;;;6.50;99.90;;;;;;5084899;28;19927;-68
2023/05/04 02:56:46;;;;;;;;;;;6.40;99.90;;;;;;5084292;28;19921;-68
2023/05/04 02:59:12;;;;;;;;;;;6.40;99.90;;;;;;5084579;28;20255;-68
2023/05/04 03:01:39;;;;;;;;;;;6.50;99.90;;;;;;5084428;28;19956;-67
2023/05/04 03:04:06;;;;;;;;;;;6.40;99.90;;;;;;5084735;28;19988;-69
2023/05/04 03:06:35;;;;;;;;;;;6.40;99.90;;;;;;5101339;28;19920;-68
2023/05/04 03:09:01;;;;;;;;;;;6.40;99.90;;;;;;5104882;28;19951;-68
2023/05/04 03:11:28;;;;;;;;;;;6.40;99.90;;;;;;5104759;28;20112;-67
2023/05/04 03:13:54;;;;;;;;;;;6.30;99.90;;;;;;5102101;28;19955;-69
2023/05/04 03:16:21;;;;;;;;;;;6.30;99.90;;;;;;5083797;28;20109;-68
2023/05/04 03:18:48;;;;;;;;;;;6.30;99.90;;;;;;5084285;28;19956;-68
2023/05/04 03:21:14;;;;;;;;;;;6.30;99.90;;;;;;5084546;28;19963;-68
2023/05/04 03:23:42;;;;;;;;;;;6.20;99.90;;;;;;5084399;28;19920;-69
2023/05/04 03:26:09;;;;;;;;;;;6.20;99.90;;;;;;5097159;28;19920;-68
2023/05/04 03:28:35;;;;;;;;;;;6.20;99.90;;;;;;5104092;28;19923;-68
2023/05/04 03:31:02;;;;;;;;;;;6.10;99.90;;;;;;5104639;28;19934;-69
2023/05/04 03:33:29;;;;;;;;;;;6.10;99.90;;;;;;5104399;28;19951;-67
2023/05/04 03:35:55;;;;;;;;;;;6.10;99.90;;;;;;5103723;28;19963;-68
2023/05/04 03:38:22;;;;;;;;;;;6.10;99.90;;;;;;5103976;28;19931;-67
2023/05/04 03:40:50;;;;;;;;;;;6.10;99.90;;;;;;5103991;28;19983;-67
2023/05/04 03:43:17;;;;;;;;;;;6.00;99.90;;;;;;5103767;28;19927;-67
2023/05/04 03:45:44;;;;;;;;;;;6.00;99.90;;;;;;5086932;28;19955;-67
2023/05/04 03:48:10;;;;;;;;;;;5.90;99.90;;;;;;5083545;28;19920;-69
2023/05/04 03:50:37;;;;;;;;;;;5.90;99.90;;;;;;5083843;28;19959;-68
2023/05/04 03:53:04;;;;;;;;;;;5.90;99.90;;;;;;5083394;28;19987;-68
2023/05/04 03:55:30;;;;;;;;;;;5.90;99.90;;;;;;5083561;28;20147;-68
2023/05/04 03:57:58;;;;;;;;;;;5.80;99.90;;;;;;5083208;28;20256;-69
2023/05/04 04:00:25;;;;;;;;;;;5.80;99.90;;;;;;5083575;28;19983;-71
2023/05/04 04:02:51;;;;;;;;;;;5.80;99.90;;;;;;5082928;28;19955;-67
2023/05/04 04:05:18;;;;;;;;;;;5.80;99.90;;;;;;5094964;28;19983;-69
2023/05/04 04:07:45;;;;;;;;;;;5.80;99.90;;;;;;5102917;28;20287;-70
2023/05/04 04:10:11;;;;;;;;;;;5.70;99.90;;;;;;5103473;28;19988;-67
2023/05/04 04:12:38;;;;;;;;;;;5.80;99.90;;;;;;5103566;28;19920;-67
2023/05/04 04:15:06;;;;;;;;;;;5.80;99.90;;;;;;5097678;28;20213;-68
2023/05/04 04:17:33;;;;;;;;;;;5.80;99.90;;;;;;5082791;28;19979;-67
2023/05/04 04:20:00;;;;;;;;;;;5.80;99.90;;;;;;5083187;28;19983;-68
2023/05/04 04:22:26;;;;;;;;;;;5.80;99.90;;;;;;5083240;28;19963;-68
2023/05/04 04:24:53;;;;;;;;;;;5.80;99.90;;;;;;5087889;28;19983;-68
2023/05/04 04:27:20;;;;;;;;;;;5.80;99.90;;;;;;5102943;28;19987;-69
2023/05/04 04:29:46;;;;;;;;;;;5.80;99.90;;;;;;5093928;28;19927;-67
2023/05/04 04:32:14;;;;;;;;;;;5.80;99.90;;;;;;5083486;28;19952;-67
2023/05/04 04:34:41;;;;;;;;;;;5.80;99.90;;;;;;5083327;28;20000;-68
2023/05/04 04:37:07;;;;;;;;;;;5.90;99.90;;;;;;5082603;28;19983;-67
2023/05/04 04:39:34;;;;;;;;;;;5.90;99.90;;;;;;5100534;28;20176;-68
2023/05/04 04:42:01;;;;;;;;;;;5.90;99.90;;;;;;5103582;28;19926;-66
2023/05/04 04:44:28;;;;;;;;;;;5.90;99.90;;;;;;5100966;28;20200;-68
2023/05/04 04:46:55;;;;;;;;;;;5.90;99.90;;;;;;5102756;28;19920;-68
2023/05/04 04:49:23;;;;;;;;;;;5.90;99.90;;;;;;5103490;28;19951;-68
2023/05/04 04:51:49;;;;;;;;;;;6.00;99.90;;;;;;5103073;28;19926;-69
2023/05/04 04:54:16;;;;;;;;;;;6.00;99.90;;;;;;5100261;28;19956;-68
2023/05/04 04:56:43;;;;;;;;;;;6.00;99.90;;;;;;5093559;28;20258;-70
2023/05/04 04:59:10;;;;;;;;;;;6.10;99.90;;;;;;5103084;28;20220;-68
2023/05/04 05:01:37;;;;;;;;;;;6.10;99.90;;;;;;5103245;28;19927;-68
2023/05/04 05:04:03;;;;;;;;;;;6.20;99.90;;;;;;5090584;28;19992;-68
2023/05/04 05:06:31;;;;;;;;;;;6.20;99.90;;;;;;5081842;28;19920;-67
2023/05/04 05:08:58;;;;;;;;;;;6.20;99.90;;;;;;5082611;28;19984;-68
2023/05/04 05:11:25;;;;;;;;;;;6.30;99.90;;;;;;5082776;28;19944;-68
2023/05/04 05:13:51;;;;;;;;;;;6.40;99.90;;;;;;5085729;28;20003;-68
2023/05/04 05:16:18;;;;;;;;;;;6.40;99.90;;;;;;5085329;28;19987;-68
2023/05/04 05:18:45;;;;;;;;;;;6.40;99.90;;;;;;5086383;28;19983;-67
2023/05/04 05:21:12;;;;;;;;;;;6.40;99.90;;;;;;5086369;28;19920;-68
2023/05/04 05:23:40;;;;;;;;;;;6.50;99.90;;;;;;5085135;28;19921;-66
2023/05/04 05:26:06;;;;;;;;;;;6.50;99.90;;;;;;5082307;28;19984;-69
2023/05/04 05:28:33;;;;;;;;;;;6.60;99.90;;;;;;5086061;28;19921;-66
2023/05/04 05:30:59;;;;;;;;;;;6.70;99.90;;;;;;5092974;28;20173;-69
2023/05/04 05:33:26;;;;;;;;;;;6.80;99.90;;;;;;5106820;28;19956;-67
2023/05/04 05:35:53;;;;;;;;;;;6.90;99.90;;;;;;5100668;28;19955;-67
2023/05/04 05:38:20;;;;;;;;;;;7.10;99.90;;;;;;5086240;28;19920;-68
2023/05/04 05:40:48;;;;;;;;;;;7.20;99.90;;;;;;5086060;28;19927;-67
2023/05/04 05:43:15;;;;;;;;;;;7.40;99.90;;;;;;5085895;28;19928;-67
2023/05/04 05:45:41;;;;;;;;;;;7.60;99.90;;;;;;5095559;28;19966;-67
2023/05/04 05:48:08;;;;;;;;;;;7.80;99.90;;;;;;5095997;28;19920;-67
2023/05/04 05:50:35;;;;;;;;;;;7.90;99.90;;;;;;5086291;28;19927;-67
2023/05/04 05:53:01;;;;;;;;;;;8.00;99.90;;;;;;5086100;28;19962;-67
2023/05/04 05:55:28;;;;;;;;;;;8.20;99.90;;;;;;5086176;28;19920;-66
2023/05/04 05:57:56;;;;;;;;;;;8.30;99.90;;;;;;5087307;28;20259;-67
2023/05/04 06:00:23;;;;;;;;;;;8.30;99.90;;;;;;5089876;28;19988;-67
2023/05/04 06:02:50;;;;;;;;;;;8.40;99.90;;;;;;5093541;28;19920;-66
2023/05/04 06:05:16;;;;;;;;;;;8.50;99.90;;;;;;5106115;28;19927;-67
2023/05/04 06:07:43;;;;;;;;;;;8.50;99.90;;;;;;5106030;28;20272;-67
2023/05/04 06:10:10;;;;;;;;;;;8.50;99.90;;;;;;5097500;28;19991;-67
2023/05/04 06:12:37;;;;;;;;;;;8.60;99.90;;;;;;5085801;28;19987;-66
2023/05/04 06:15:06;;;;;;;;;;;8.70;99.90;;;;;;5088464;28;19920;-67
2023/05/04 06:17:33;;;;;;;;;;;8.80;99.90;;;;;;5085103;28;20136;-68
2023/05/04 06:19:59;;;;;;;;;;;8.90;99.90;;;;;;5085844;28;19920;-67
2023/05/04 06:22:26;;;;;;;;;;;8.90;99.90;;;;;;5085746;28;19991;-67
2023/05/04 06:24:53;;;;;;;;;;;9.00;99.90;;;;;;5084711;28;19995;-68
2023/05/04 06:27:19;;;;;;;;;;;9.10;99.90;;;;;;5085277;28;19959;-66
2023/05/04 06:29:46;;;;;;;;;;;9.10;99.90;;;;;;5093618;28;19948;-67
2023/05/04 06:32:14;;;;;;;;;;;9.10;99.90;;;;;;5101264;28;19920;-67
2023/05/04 06:34:41;;;;;;;;;;;9.20;99.90;;;;;;5082473;28;19920;-67
2023/05/04 06:37:07;;;;;;;;;;;9.30;99.90;;;;;;5084673;28;19987;-69
2023/05/04 06:39:34;;;;;;;;;;;9.40;99.90;;;;;;5085313;28;19948;-67
2023/05/04 06:42:01;;;;;;;;;;;9.50;99.90;;;;;;5090329;28;20313;-67
2023/05/04 06:44:27;;;;;;;;;;;9.60;99.90;;;;;;5090748;28;19943;-67
2023/05/04 06:46:54;;;;;;;;;;;9.70;99.90;;;;;;5084190;28;19920;-67
2023/05/04 06:49:22;;;;;;;;;;;9.80;99.90;;;;;;5088734;28;19983;-68
2023/05/04 06:51:49;;;;;;;;;;;9.90;99.90;;;;;;5105094;28;19927;-68
2023/05/04 06:54:15;;;;;;;;;;;10.00;99.90;;;;;;5105044;28;19987;-67
2023/05/04 06:56:42;;;;;;;;;;;10.10;99.90;;;;;;5103873;28;20279;-67
2023/05/04 06:59:09;;;;;;;;;;;10.20;99.90;;;;;;5105271;28;19926;-68
2023/05/04 07:01:36;;;;;;;;;;;10.30;99.90;;;;;;5105225;28;19924;-67
2023/05/04 07:04:03;;;;;;;;;;;10.40;99.90;;;;;;5104973;28;19961;-66
2023/05/04 07:06:31;;;;;;;;;;;10.60;99.90;;;;;;5104519;28;19951;-67
2023/05/04 07:08:57;;;;;;;;;;;10.70;99.90;;;;;;5093252;28;19921;-66
2023/05/04 07:11:24;;;;;;;;;;;10.80;99.90;;;;;;5084762;28;19952;-68
2023/05/04 07:13:51;;;;;;;;;;;11.00;99.90;;;;;;5084737;28;19925;-68
2023/05/04 07:16:18;;;;;;;;;;;11.10;99.90;;;;;;5084287;28;19984;-67
2023/05/04 07:18:45;;;;;;;;;;;11.20;99.90;;;;;;5084214;28;19987;-66
2023/05/04 07:21:11;;;;;;;;;;;11.30;99.90;;;;;;5084595;28;19988;-67
2023/05/04 07:23:39;;;;;;;;;;;11.50;99.90;;;;;;5084044;28;19956;-66
2023/05/04 07:26:06;;;;;;;;;;;11.50;99.90;;;;;;5083468;28;20201;-67
2023/05/04 07:28:33;;;;;;;;;;;11.70;99.90;;;;;;5084329;28;19924;-67
2023/05/04 07:31:00;;;;;;;;;;;11.80;99.90;;;;;;5084314;28;19920;-68
2023/05/04 07:33:27;;;;;;;;;;;11.80;99.90;;;;;;5083984;28;20228;-66
2023/05/04 07:35:56;;;;;;;;;;;12.00;99.90;;;;;;5097732;28;20220;-68
2023/05/04 07:38:23;;;;;;;;;;;12.10;99.90;;;;;;5104127;28;20120;-67
2023/05/04 07:40:51;;;;;;;;;;;12.30;99.90;;;;;;5104568;28;19991;-67
2023/05/04 07:43:17;;;;;;;;;;;12.40;99.90;;;;;;5104398;28;19920;-67
2023/05/04 07:45:44;;;;;;;;;;;12.50;99.90;;;;;;5102521;28;20167;-68
2023/05/04 07:48:10;;;;;;;;;;;12.60;99.90;;;;;;5082641;28;19959;-67
2023/05/04 07:50:38;;;;;;;;;;;12.80;99.90;;;;;;5083535;28;19991;-66
2023/05/04 07:53:04;;;;;;;;;;;12.80;99.90;;;;;;5083846;28;19921;-66
2023/05/04 07:55:31;;;;;;;;;;;12.80;99.90;;;;;;5083273;28;19959;-67
2023/05/04 07:57:59;;;;;;;;;;;12.90;99.90;;;;;;5082908;28;19927;-68
2023/05/04 08:00:26;;;;;;;;;;;13.00;99.90;;;;;;5082174;28;19983;-68
2023/05/04 08:02:52;;;;;;;;;;;13.00;99.90;;;;;;5082365;28;19927;-66
2023/05/04 08:05:19;;;;;;;;;;;13.10;99.90;;;;;;5082926;28;19927;-67
2023/05/04 08:07:46;;;;;;;;;;;13.20;99.90;;;;;;5082925;28;19924;-67
2023/05/04 08:10:12;;;;;;;;;;;13.20;99.90;;;;;;5083492;28;19921;-67
2023/05/04 08:12:39;;;;;;;;;;;13.30;99.90;;;;;;5083765;28;19921;-67
2023/05/04 08:15:09;;;;;;;;;;;13.50;99.90;;;;;;5083540;28;19983;-67
2023/05/04 08:17:38;;;;;;;;;;;13.60;99.90;;;;;;5083076;28;19952;-67
2023/05/04 08:20:05;;;;;;;;;;;13.70;99.90;;;;;;5083577;28;19924;-67
2023/05/04 08:22:32;;;;;;;;;;;13.70;99.90;;;;;;5083588;28;19928;-67
2023/05/04 08:24:59;;;;;;;;;;;13.90;99.90;;;;;;5080494;28;20220;-66
2023/05/04 08:27:25;;;;;;;;;;;14.00;99.90;;;;;;5082671;28;19920;-67
2023/05/04 08:29:52;;;;;;;;;;;14.10;99.90;;;;;;5083449;28;19955;-66
2023/05/04 08:32:20;;;;;;;;;;;14.20;99.90;;;;;;5083427;28;19983;-67
2023/05/04 08:34:46;;;;;;;;;;;14.20;99.90;;;;;;5082936;28;19979;-67
2023/05/04 08:37:13;;;;;;;;;;;14.30;99.90;;;;;;5082648;28;19983;-67
2023/05/04 08:39:40;;;;;;;;;;;14.40;99.90;;;;;;5083315;28;19952;-66
2023/05/04 08:42:06;;;;;;;;;;;14.50;99.90;;;;;;5083134;28;19921;-67
2023/05/04 08:44:34;;;;;;;;;;;14.60;99.90;;;;;;5081575;28;19999;-66
2023/05/04 08:47:03;;;;;;;;;;;14.60;99.90;;;;;;5082468;28;19963;-67
2023/05/04 08:49:31;;;;;;;;;;;14.70;99.90;;;;;;5087380;28;19927;-67
2023/05/04 08:51:58;;;;;;;;;;;14.80;99.90;;;;;;5087315;28;19942;-67
2023/05/04 08:54:26;;;;;;;;;;;14.80;99.90;;;;;;5087204;28;19995;-67
2023/05/04 08:56:53;;;;;;;;;;;14.80;99.90;;;;;;5086543;28;19955;-68
2023/05/04 08:59:21;;;;;;;;;;;14.90;99.90;;;;;;5087040;28;19921;-67
2023/05/04 09:01:49;;;;;;;;;;;14.90;99.90;;;;;;5086964;28;19984;-66
2023/05/04 09:04:17;;;;;;;;;;;15.10;99.90;;;;;;5086662;28;19920;-67
2023/05/04 09:06:46;;;;;;;;;;;15.10;99.90;;;;;;5085968;28;20138;-66
2023/05/04 09:09:12;;;;;;;;;;;15.20;99.90;;;;;;5086879;28;19920;-67
2023/05/04 09:11:39;;;;;;;;;;;15.30;99.90;;;;;;5087059;28;19927;-67
2023/05/04 09:14:06;;;;;;;;;;;15.40;99.90;;;;;;5086549;28;20251;-67
2023/05/04 09:16:33;;;;;;;;;;;15.40;99.90;;;;;;5086338;28;19963;-67
2023/05/04 09:19:00;;;;;;;;;;;15.50;99.90;;;;;;5087002;28;19935;-66
2023/05/04 09:21:30;;;;;;;;;;;15.60;99.90;;;;;;5086933;28;19944;-67
2023/05/04 09:23:58;;;;;;;;;;;15.70;99.90;;;;;;5086694;28;19973;-69
2023/05/04 09:26:28;;;;;;;;;;;15.80;99.90;;;;;;5086265;28;20231;-67
2023/05/04 09:28:55;;;;;;;;;;;15.80;99.90;;;;;;5086586;28;19921;-67
2023/05/04 09:31:22;;;;;;;;;;;15.90;99.90;;;;;;5086547;28;19920;-66
2023/05/04 09:33:49;;;;;;;;;;;16.00;99.90;;;;;;5086312;28;20140;-67
2023/05/04 09:36:17;;;;;;;;;;;16.10;99.90;;;;;;5085672;28;19984;-66
2023/05/04 09:38:44;;;;;;;;;;;16.20;99.90;;;;;;5086411;28;20164;-67
2023/05/04 09:41:12;;;;;;;;;;;16.30;99.90;;;;;;5086102;28;19920;-66
2023/05/04 09:43:39;;;;;;;;;;;16.40;99.90;;;;;;5086379;28;19920;-67
2023/05/04 09:46:07;;;;;;;;;;;16.50;99.90;;;;;;5083117;28;19927;-68
2023/05/04 09:48:35;;;;;;;;;;;16.60;99.90;;;;;;5086137;28;19921;-67
2023/05/04 09:51:02;;;;;;;;;;;16.70;99.90;;;;;;5085864;28;19988;-69
2023/05/04 09:53:30;;;;;;;;;;;16.80;99.90;;;;;;5085936;28;20220;-67
2023/05/04 09:56:01;;;;;;;;;;;16.80;99.90;;;;;;5085728;28;20238;-67
2023/05/04 09:58:30;;;;;;;;;;;17.00;99.90;;;;;;5087452;28;19978;-67
2023/05/04 10:00:58;;;;;;;;;;;17.20;99.90;;;;;;5105550;28;19920;-67
2023/05/04 10:03:26;;;;;;;;;;;17.30;99.90;;;;;;5105968;28;20119;-67
2023/05/04 10:05:53;;;;;;;;;;;17.40;99.90;;;;;;5088508;28;19931;-66
2023/05/04 10:08:20;;;;;;;;;;;17.50;99.90;;;;;;5085361;28;20256;-67
2023/05/04 10:10:47;;;;;;;;;;;17.60;99.90;;;;;;5089493;28;19920;-67
2023/05/04 10:13:14;;;;;;;;;;;17.80;99.90;;;;;;5085351;28;20228;-67
2023/05/04 10:15:50;;;;;;;;;;;17.80;99.90;;;;;;5085469;28;19921;-67
2023/05/04 10:18:21;;;;;;;;;;;17.90;99.90;;;;;;5095814;28;19983;-67
2023/05/04 10:20:58;;;;;;;;;;;18.00;99.90;;;;;;5098003;28;19926;-66
2023/05/04 10:23:43;;;;;;;;;;;18.00;99.90;;;;;;5102870;28;19920;-67
2023/05/04 10:26:21;;;;;;;;;;;18.20;99.90;;;;;;5104894;28;20238;-71
2023/05/04 10:28:54;;;;;;;;;;;18.30;99.90;;;;;;5105554;28;20212;-67
2023/05/04 10:31:22;;;;;;;;;;;18.40;99.90;;;;;;5105766;28;19919;-67
2023/05/04 10:33:49;;;;;;;;;;;18.40;99.90;;;;;;5105678;28;19926;-67
2023/05/04 10:36:15;;;;;;;;;;;18.50;99.90;;;;;;5105014;28;20317;-67
2023/05/04 10:38:42;;;;;;;;;;;18.70;99.90;;;;;;5105301;28;19926;-67
2023/05/04 10:41:15;;;;;;;;;;;18.70;99.90;;;;;;5103046;28;19983;-66
2023/05/04 10:43:47;;;;;;;;;;;18.70;99.90;;;;;;5085302;28;19927;-67
2023/05/04 10:46:17;;;;;;;;;;;18.90;99.90;;;;;;5082021;28;19928;-67
2023/05/04 10:48:45;;;;;;;;;;;18.90;99.90;;;;;;5085170;28;19980;-67
2023/05/04 10:51:19;;;;;;;;;;;19.00;99.90;;;;;;5085084;28;19920;-67
2023/05/04 10:53:46;;;;;;;;;;;19.10;99.90;;;;;;5085090;28;19921;-67
2023/05/04 10:56:20;;;;;;;;;;;19.20;99.90;;;;;;5096645;28;19924;-66
2023/05/04 10:58:46;;;;;;;;;;;19.40;99.90;;;;;;5102912;28;19920;-67
2023/05/04 11:01:13;;;;;;;;;;;19.50;99.90;;;;;;5084803;28;19920;-67
2023/05/04 11:03:40;;;;;;;;;;;19.70;99.90;;;;;;5091955;28;19920;-67
2023/05/04 11:06:16;;;;;;;;;;;19.90;99.90;;;;;;5101246;28;19963;-67
2023/05/04 11:08:43;;;;;;;;;;;20.10;99.90;;;;;;5095904;28;19924;-68
2023/05/04 11:11:10;;;;;;;;;;;20.40;99.90;;;;;;5104632;28;19920;-68
2023/05/04 11:13:43;;;;;;;;;;;20.40;99.90;;;;;;5086907;28;19952;-67
2023/05/04 11:16:11;;;;;;;;;;;20.50;99.90;;;;;;5104255;28;19991;-68
2023/05/04 11:18:38;;;;;;;;;;;20.60;99.90;;;;;;5094407;28;19931;-67
2023/05/04 11:21:07;;;;;;;;;;;20.60;99.90;;;;;;5090282;28;20285;-67
2023/05/04 11:23:35;;;;;;;;;;;20.70;99.90;;;;;;5104365;28;20027;-66
2023/05/04 11:26:06;;;;;;;;;;;20.80;99.90;;;;;;5103091;28;19931;-67
2023/05/04 11:28:33;;;;;;;;;;;20.80;99.90;;;;;;5083365;28;19966;-66
2023/05/04 11:31:00;;;;;;;;;;;20.80;99.90;;;;;;5083345;28;19924;-68
2023/05/04 11:33:26;;;;;;;;;;;20.90;99.90;;;;;;5092012;28;19926;-68
2023/05/04 11:35:58;;;;;;;;;;;21.10;99.90;;;;;;5103347;28;19958;-67
2023/05/04 11:38:25;;;;;;;;;;;21.20;99.90;;;;;;5104048;28;19928;-66
2023/05/04 11:40:53;;;;;;;;;;;21.30;99.90;;;;;;5086980;28;19979;-66
2023/05/04 11:43:20;;;;;;;;;;;21.30;99.90;;;;;;5082690;28;19983;-66
2023/05/04 11:45:47;;;;;;;;;;;21.10;99.90;;;;;;5082356;28;19991;-67
2023/05/04 11:48:13;;;;;;;;;;;21.00;99.90;;;;;;5083399;28;19920;-66
2023/05/04 11:50:40;;;;;;;;;;;21.00;99.90;;;;;;5083722;28;19983;-67
2023/05/04 11:53:08;;;;;;;;;;;21.10;99.90;;;;;;5101846;28;19979;-67
2023/05/04 11:55:36;;;;;;;;;;;21.20;99.90;;;;;;5087711;28;19956;-67
2023/05/04 11:58:04;;;;;;;;;;;21.40;98.80;;;;;;5083739;28;19979;-66
2023/05/04 12:00:37;;;;;;;;;;;21.70;97.10;;;;;;5095971;28;19920;-66
2023/05/04 12:03:05;;;;;;;;;;;21.80;97.20;;;;;;5100383;28;19921;-66
2023/05/04 12:05:32;;;;;;;;;;;22.10;98.80;;;;;;5096370;28;19920;-66
2023/05/04 12:07:58;;;;;;;;;;;22.20;97.70;;;;;;5095687;28;19927;-66
2023/05/04 12:10:26;;;;;;;;;;;22.30;97.90;;;;;;5083552;28;19927;-67
2023/05/04 12:12:53;;;;;;;;;;;22.40;96.90;;;;;;5083581;28;20171;-67
2023/05/04 12:15:28;;;;;;;;;;;22.50;94.70;;;;;;5093488;28;19991;-66
2023/05/04 12:17:55;;;;;;;;;;;22.50;94.40;;;;;;5103201;28;19924;-66
2023/05/04 12:20:23;;;;;;;;;;;22.50;92.40;;;;;;5092392;28;20259;-68
2023/05/04 12:22:49;;;;;;;;;;;22.40;94.80;;;;;;5082612;28;19963;-67
2023/05/04 12:25:18;;;;;;;;;;;22.50;94.30;;;;;;5091829;28;19958;-68
2023/05/04 12:27:44;;;;;;;;;;;22.70;93.60;;;;;;5103031;28;19920;-67
2023/05/04 12:30:12;;;;;;;;;;;22.90;93.30;;;;;;5103248;28;20227;-66
2023/05/04 12:32:40;;;;;;;;;;;23.20;92.60;;;;;;5103201;28;20275;-66
2023/05/04 12:35:07;;;;;;;;;;;23.30;91.20;;;;;;5103228;28;19927;-68
2023/05/04 12:37:33;;;;;;;;;;;23.30;90.70;;;;;;5093777;28;19951;-67
2023/05/04 12:40:00;;;;;;;;;;;23.40;91.30;;;;;;5082386;28;19980;-66
2023/05/04 12:42:26;;;;;;;;;;;23.50;90.60;;;;;;5082903;28;19991;-67
2023/05/04 12:44:53;;;;;;;;;;;23.60;90.30;;;;;;5099962;28;20142;-66
2023/05/04 12:47:23;;;;;;;;;;;23.60;91.90;;;;;;5099904;28;20252;-66
2023/05/04 12:49:51;;;;;;;;;;;23.60;90.10;;;;;;5082995;28;19963;-65
2023/05/04 12:52:17;;;;;;;;;;;23.40;88.30;;;;;;5097762;28;19983;-66
2023/05/04 12:54:44;;;;;;;;;;;23.30;90.20;;;;;;5097485;28;19983;-68
2023/05/04 12:57:11;;;;;;;;;;;23.20;90.60;;;;;;5087052;28;19927;-66
2023/05/04 12:59:37;;;;;;;;;;;23.00;89.70;;;;;;5092327;28;19962;-66
2023/05/04 13:02:04;;;;;;;;;;;23.00;90.70;;;;;;5087472;28;19987;-68
2023/05/04 13:04:31;;;;;;;;;;;22.90;85.30;;;;;;5096989;28;20204;-68
2023/05/04 13:06:59;;;;;;;;;;;22.90;88.10;;;;;;5096367;28;19920;-67
2023/05/04 13:09:26;;;;;;;;;;;23.00;90.40;;;;;;5092961;28;19927;-66
2023/05/04 13:11:53;;;;;;;;;;;22.90;87.40;;;;;;5100999;28;19920;-67
2023/05/04 13:14:19;;;;;;;;;;;23.10;90.30;;;;;;5082949;28;20174;-66
2023/05/04 13:16:46;;;;;;;;;;;23.10;88.10;;;;;;5086879;28;19927;-66
2023/05/04 13:19:12;;;;;;;;;;;23.10;90.30;;;;;;5098680;28;19951;-66
2023/05/04 13:21:39;;;;;;;;;;;23.00;88.30;;;;;;5103304;28;19983;-67
2023/05/04 13:24:07;;;;;;;;;;;22.80;87.10;;;;;;5099507;28;20003;-67
2023/05/04 13:26:34;;;;;;;;;;;22.70;88.90;;;;;;5100438;28;19927;-67
2023/05/04 13:29:02;;;;;;;;;;;22.70;87.30;;;;;;5102737;28;19952;-66
2023/05/04 13:31:28;;;;;;;;;;;22.90;90.20;;;;;;5103030;28;19926;-66
2023/05/04 13:33:55;;;;;;;;;;;23.20;88.70;;;;;;5104290;28;20175;-67
2023/05/04 13:36:22;;;;;;;;;;;23.40;90.80;;;;;;5105791;28;19927;-67
2023/05/04 13:38:49;;;;;;;;;;;23.60;87.30;;;;;;5106710;28;19987;-66
2023/05/04 13:41:17;;;;;;;;;;;23.90;86.70;;;;;;5102961;28;19926;-66
2023/05/04 13:43:43;;;;;;;;;;;24.00;88.40;;;;;;5106008;28;19991;-66
2023/05/04 13:46:10;;;;;;;;;;;24.10;86.10;;;;;;5105767;28;19927;-66
2023/05/04 13:48:36;;;;;;;;;;;24.30;87.10;;;;;;5106320;28;19920;-66
2023/05/04 13:51:03;;;;;;;;;;;24.60;86.60;;;;;;5098655;28;19955;-65
2023/05/04 13:53:30;;;;;;;;;;;24.90;86.30;;;;;;5106186;28;19951;-66
2023/05/04 13:55:57;;;;;;;;;;;25.10;83.60;;;;;;5092676;28;19927;-66
2023/05/04 13:58:24;;;;;;;;;;;24.90;81.60;;;;;;5090045;28;19947;-67
2023/05/04 14:00:51;;;;;;;;;;;24.50;82.50;;;;;;5100731;28;20400;-69
2023/05/04 14:03:18;;;;;;;;;;;24.50;83.60;;;;;;5085570;28;19920;-67
2023/05/04 14:05:45;;;;;;;;;;;24.60;85.60;;;;;;5085521;28;19920;-67
2023/05/04 14:08:11;;;;;;;;;;;24.70;81.90;;;;;;5084558;28;19950;-67
2023/05/04 14:10:38;;;;;;;;;;;24.80;84.50;;;;;;5090349;28;20088;-67
2023/05/04 14:13:05;;;;;;;;;;;24.90;79.10;;;;;;5104817;28;20161;-67
2023/05/04 14:15:33;;;;;;;;;;;24.70;80.10;;;;;;5100815;28;19984;-67
2023/05/04 14:18:00;;;;;;;;;;;24.70;81.40;;;;;;5084750;28;19927;-67
2023/05/04 14:20:26;;;;;;;;;;;24.60;79.30;;;;;;5088624;28;20150;-67
2023/05/04 14:22:53;;;;;;;;;;;24.50;80.70;;;;;;5105138;28;19920;-66
2023/05/04 14:25:21;;;;;;;;;;;24.10;80.10;;;;;;5105573;28;19966;-67